sensor_id;sensor_type;location;lat;lon;timestamp;temperature;humidity
35559;DHT22;21661;50.794;-1.066;2022-10-16T00:02:08;15.00;99.90
35559;DHT22;21661;50.794;-1.066;2022-10-16T00:04:34;14.80;99.90
35559;DHT22;21661;50.794;-1.066;2022-10-16T00:06:59;14.90;99.90
35559;DHT22;21661;50.794;-1.066;2022-10-16T00:09:25;14.90;99.90
35559;DHT22;21661;50.794;-1.066;2022-10-16T00:11:50;14.90;99.90
35559;DHT22;21661;50.794;-1.066;2022-10-16T00:14:16;14.80;99.90
35559;DHT22;21661;50.794;-1.066;2022-10-16T00:16:41;14.80;99.90
35559;DHT22;21661;50.794;-1.066;2022-10-16T00:19:07;14.80;99.90
35559;DHT22;21661;50.794;-1.066;2022-10-16T00:21:33;14.80;99.90
35559;DHT22;21661;50.794;-1.066;2022-10-16T00:24:00;14.80;99.90
35559;DHT22;21661;50.794;-1.066;2022-10-16T00:26:26;14.80;99.90
35559;DHT22;21661;50.794;-1.066;2022-10-16T00:28:51;14.90;99.90
35559;DHT22;21661;50.794;-1.066;2022-10-16T00:31:18;14.80;99.90
35559;DHT22;21661;50.794;-1.066;2022-10-16T00:33:44;14.90;99.90
35559;DHT22;21661;50.794;-1.066;2022-10-16T00:36:10;14.80;99.90
35559;DHT22;21661;50.794;-1.066;2022-10-16T00:38:36;14.80;99.90
35559;DHT22;21661;50.794;-1.066;2022-10-16T00:41:03;14.80;99.90
35559;DHT22;21661;50.794;-1.066;2022-10-16T00:45:57;14.80;99.90
35559;DHT22;21661;50.794;-1.066;2022-10-16T00:48:23;14.80;99.90
35559;DHT22;21661;50.794;-1.066;2022-10-16T00:50:48;14.80;99.90
35559;DHT22;21661;50.794;-1.066;2022-10-16T00:53:14;14.80;99.90
35559;DHT22;21661;50.794;-1.066;2022-10-16T00:55:39;14.90;99.90
35559;DHT22;21661;50.794;-1.066;2022-10-16T00:58:05;14.90;99.90
35559;DHT22;21661;50.794;-1.066;2022-10-16T01:00:31;14.90;99.90
35559;DHT22;21661;50.794;-1.066;2022-10-16T01:02:57;15.00;99.90
35559;DHT22;21661;50.794;-1.066;2022-10-16T01:05:24;14.90;99.90
35559;DHT22;21661;50.794;-1.066;2022-10-16T01:13:01;14.50;99.90
35559;DHT22;21661;50.794;-1.066;2022-10-16T01:17:58;14.30;99.90
35559;DHT22;21661;50.794;-1.066;2022-10-16T01:25:42;14.30;99.90
35559;DHT22;21661;50.794;-1.066;2022-10-16T01:28:11;14.20;99.90
35559;DHT22;21661;50.794;-1.066;2022-10-16T01:30:38;14.20;99.90
35559;DHT22;21661;50.794;-1.066;2022-10-16T01:33:08;14.30;99.90
35559;DHT22;21661;50.794;-1.066;2022-10-16T01:35:36;14.30;99.90
35559;DHT22;21661;50.794;-1.066;2022-10-16T01:41:16;14.30;99.90
35559;DHT22;21661;50.794;-1.066;2022-10-16T01:43:46;14.40;99.90
35559;DHT22;21661;50.794;-1.066;2022-10-16T01:46:11;14.40;99.90
35559;DHT22;21661;50.794;-1.066;2022-10-16T01:48:38;14.40;99.90
35559;DHT22;21661;50.794;-1.066;2022-10-16T01:51:06;14.50;99.90
35559;DHT22;21661;50.794;-1.066;2022-10-16T01:53:32;14.50;99.90
35559;DHT22;21661;50.794;-1.066;2022-10-16T01:55:57;14.50;99.90
35559;DHT22;21661;50.794;-1.066;2022-10-16T01:58:23;14.50;99.90
35559;DHT22;21661;50.794;-1.066;2022-10-16T02:00:50;14.50;99.90
35559;DHT22;21661;50.794;-1.066;2022-10-16T02:03:17;14.50;99.90
35559;DHT22;21661;50.794;-1.066;2022-10-16T02:05:45;14.50;99.90
35559;DHT22;21661;50.794;-1.066;2022-10-16T02:08:11;14.50;99.90
35559;DHT22;21661;50.794;-1.066;2022-10-16T02:10:37;14.50;99.90
35559;DHT22;21661;50.794;-1.066;2022-10-16T02:13:10;14.50;99.90
35559;DHT22;21661;50.794;-1.066;2022-10-16T02:15:37;14.50;99.90
35559;DHT22;21661;50.794;-1.066;2022-10-16T02:18:05;14.40;99.90
35559;DHT22;21661;50.794;-1.066;2022-10-16T02:20:48;14.40;99.90
35559;DHT22;21661;50.794;-1.066;2022-10-16T02:23:17;14.30;99.90
35559;DHT22;21661;50.794;-1.066;2022-10-16T02:25:43;14.30;99.90
35559;DHT22;21661;50.794;-1.066;2022-10-16T02:28:12;14.20;99.90
35559;DHT22;21661;50.794;-1.066;2022-10-16T02:30:43;14.00;99.90
35559;DHT22;21661;50.794;-1.066;2022-10-16T02:33:10;14.10;99.90
35559;DHT22;21661;50.794;-1.066;2022-10-16T02:35:38;14.00;99.90
35559;DHT22;21661;50.794;-1.066;2022-10-16T02:38:05;13.90;99.90
35559;DHT22;21661;50.794;-1.066;2022-10-16T02:40:31;13.90;99.90
35559;DHT22;21661;50.794;-1.066;2022-10-16T02:42:56;14.00;99.90
35559;DHT22;21661;50.794;-1.066;2022-10-16T02:45:22;14.00;99.90
35559;DHT22;21661;50.794;-1.066;2022-10-16T02:47:48;14.00;99.90
35559;DHT22;21661;50.794;-1.066;2022-10-16T02:50:13;14.00;99.90
35559;DHT22;21661;50.794;-1.066;2022-10-16T02:52:39;14.00;99.90
35559;DHT22;21661;50.794;-1.066;2022-10-16T02:55:05;14.00;99.90
35559;DHT22;21661;50.794;-1.066;2022-10-16T02:57:30;14.00;99.90
35559;DHT22;21661;50.794;-1.066;2022-10-16T02:59:57;14.00;99.90
35559;DHT22;21661;50.794;-1.066;2022-10-16T03:02:22;14.00;99.90
35559;DHT22;21661;50.794;-1.066;2022-10-16T03:04:48;14.00;99.90
35559;DHT22;21661;50.794;-1.066;2022-10-16T03:07:13;13.90;99.90
35559;DHT22;21661;50.794;-1.066;2022-10-16T03:09:39;13.90;99.90
35559;DHT22;21661;50.794;-1.066;2022-10-16T03:12:04;13.90;99.90
35559;DHT22;21661;50.794;-1.066;2022-10-16T03:14:30;14.00;99.90
35559;DHT22;21661;50.794;-1.066;2022-10-16T03:16:55;14.00;99.90
35559;DHT22;21661;50.794;-1.066;2022-10-16T03:19:21;14.00;99.90
35559;DHT22;21661;50.794;-1.066;2022-10-16T03:21:46;14.10;99.90
35559;DHT22;21661;50.794;-1.066;2022-10-16T03:24:12;14.20;99.90
35559;DHT22;21661;50.794;-1.066;2022-10-16T03:26:37;14.30;99.90
35559;DHT22;21661;50.794;-1.066;2022-10-16T03:29:03;14.40;99.90
35559;DHT22;21661;50.794;-1.066;2022-10-16T03:31:31;14.30;99.90
35559;DHT22;21661;50.794;-1.066;2022-10-16T03:33:57;14.30;99.90
35559;DHT22;21661;50.794;-1.066;2022-10-16T03:36:23;14.30;99.90
35559;DHT22;21661;50.794;-1.066;2022-10-16T03:38:48;14.40;99.90
35559;DHT22;21661;50.794;-1.066;2022-10-16T03:41:14;14.40;99.90
35559;DHT22;21661;50.794;-1.066;2022-10-16T03:43:39;14.40;99.90
35559;DHT22;21661;50.794;-1.066;2022-10-16T03:46:05;14.40;99.90
35559;DHT22;21661;50.794;-1.066;2022-10-16T03:48:30;14.40;99.90
35559;DHT22;21661;50.794;-1.066;2022-10-16T03:50:57;14.40;99.90
35559;DHT22;21661;50.794;-1.066;2022-10-16T03:53:23;14.40;99.90
35559;DHT22;21661;50.794;-1.066;2022-10-16T03:55:48;14.40;99.90
35559;DHT22;21661;50.794;-1.066;2022-10-16T03:58:14;14.40;99.90
35559;DHT22;21661;50.794;-1.066;2022-10-16T04:00:40;14.40;99.90
35559;DHT22;21661;50.794;-1.066;2022-10-16T04:03:06;14.40;99.90
35559;DHT22;21661;50.794;-1.066;2022-10-16T04:05:32;14.30;99.90
35559;DHT22;21661;50.794;-1.066;2022-10-16T04:07:57;14.20;99.90
35559;DHT22;21661;50.794;-1.066;2022-10-16T04:10:23;14.20;99.90
35559;DHT22;21661;50.794;-1.066;2022-10-16T04:12:48;14.20;99.90
35559;DHT22;21661;50.794;-1.066;2022-10-16T04:15:14;14.20;99.90
35559;DHT22;21661;50.794;-1.066;2022-10-16T04:17:39;14.20;99.90
35559;DHT22;21661;50.794;-1.066;2022-10-16T04:20:05;14.20;99.90
35559;DHT22;21661;50.794;-1.066;2022-10-16T04:22:30;14.10;99.90
35559;DHT22;21661;50.794;-1.066;2022-10-16T04:24:56;14.10;99.90
35559;DHT22;21661;50.794;-1.066;2022-10-16T04:27:21;14.10;99.90
35559;DHT22;21661;50.794;-1.066;2022-10-16T04:29:47;14.00;99.90
35559;DHT22;21661;50.794;-1.066;2022-10-16T04:32:12;13.90;99.90
35559;DHT22;21661;50.794;-1.066;2022-10-16T04:34:39;13.90;99.90
35559;DHT22;21661;50.794;-1.066;2022-10-16T04:37:04;13.80;99.90
35559;DHT22;21661;50.794;-1.066;2022-10-16T04:39:30;13.90;99.90
35559;DHT22;21661;50.794;-1.066;2022-10-16T04:41:55;13.90;99.90
35559;DHT22;21661;50.794;-1.066;2022-10-16T04:44:21;13.80;99.90
35559;DHT22;21661;50.794;-1.066;2022-10-16T04:46:46;13.80;99.90
35559;DHT22;21661;50.794;-1.066;2022-10-16T04:49:12;13.80;99.90
35559;DHT22;21661;50.794;-1.066;2022-10-16T04:51:37;13.80;99.90
35559;DHT22;21661;50.794;-1.066;2022-10-16T04:54:03;13.80;99.90
35559;DHT22;21661;50.794;-1.066;2022-10-16T04:56:28;13.80;99.90
35559;DHT22;21661;50.794;-1.066;2022-10-16T04:58:54;13.80;99.90
35559;DHT22;21661;50.794;-1.066;2022-10-16T05:01:19;13.80;99.90
35559;DHT22;21661;50.794;-1.066;2022-10-16T05:03:45;13.80;99.90
35559;DHT22;21661;50.794;-1.066;2022-10-16T05:06:11;13.70;99.90
35559;DHT22;21661;50.794;-1.066;2022-10-16T05:08:36;13.80;99.90
35559;DHT22;21661;50.794;-1.066;2022-10-16T05:11:02;13.70;99.90
35559;DHT22;21661;50.794;-1.066;2022-10-16T05:13:27;13.70;99.90
35559;DHT22;21661;50.794;-1.066;2022-10-16T05:15:53;13.70;99.90
35559;DHT22;21661;50.794;-1.066;2022-10-16T05:18:18;13.70;99.90
35559;DHT22;21661;50.794;-1.066;2022-10-16T05:20:44;13.70;99.90
35559;DHT22;21661;50.794;-1.066;2022-10-16T05:23:09;13.70;99.90
35559;DHT22;21661;50.794;-1.066;2022-10-16T05:25:35;13.70;99.90
35559;DHT22;21661;50.794;-1.066;2022-10-16T05:28:01;13.80;99.90
35559;DHT22;21661;50.794;-1.066;2022-10-16T05:30:26;13.80;99.90
35559;DHT22;21661;50.794;-1.066;2022-10-16T05:32:52;13.80;99.90
35559;DHT22;21661;50.794;-1.066;2022-10-16T05:35:17;13.70;99.90
35559;DHT22;21661;50.794;-1.066;2022-10-16T05:37:43;13.70;99.90
35559;DHT22;21661;50.794;-1.066;2022-10-16T05:40:09;13.80;99.90
35559;DHT22;21661;50.794;-1.066;2022-10-16T05:42:35;13.80;99.90
35559;DHT22;21661;50.794;-1.066;2022-10-16T05:45:00;13.80;99.90
35559;DHT22;21661;50.794;-1.066;2022-10-16T05:47:26;13.70;99.90
35559;DHT22;21661;50.794;-1.066;2022-10-16T05:49:51;13.80;99.90
35559;DHT22;21661;50.794;-1.066;2022-10-16T05:52:17;13.70;99.90
35559;DHT22;21661;50.794;-1.066;2022-10-16T05:54:43;13.70;99.90
35559;DHT22;21661;50.794;-1.066;2022-10-16T05:57:08;13.60;99.90
35559;DHT22;21661;50.794;-1.066;2022-10-16T05:59:34;13.70;99.90
35559;DHT22;21661;50.794;-1.066;2022-10-16T06:01:59;13.60;99.90
35559;DHT22;21661;50.794;-1.066;2022-10-16T06:04:25;13.60;99.90
35559;DHT22;21661;50.794;-1.066;2022-10-16T06:06:50;13.60;99.90
35559;DHT22;21661;50.794;-1.066;2022-10-16T06:09:16;13.70;99.90
35559;DHT22;21661;50.794;-1.066;2022-10-16T06:11:41;13.60;99.90
35559;DHT22;21661;50.794;-1.066;2022-10-16T06:14:08;13.60;99.90
35559;DHT22;21661;50.794;-1.066;2022-10-16T06:16:37;13.60;99.90
35559;DHT22;21661;50.794;-1.066;2022-10-16T06:19:03;13.60;99.90
35559;DHT22;21661;50.794;-1.066;2022-10-16T06:21:31;13.60;99.90
35559;DHT22;21661;50.794;-1.066;2022-10-16T06:23:57;13.60;99.90
35559;DHT22;21661;50.794;-1.066;2022-10-16T06:26:24;13.60;99.90
35559;DHT22;21661;50.794;-1.066;2022-10-16T06:28:50;13.60;99.90
35559;DHT22;21661;50.794;-1.066;2022-10-16T06:31:16;13.70;99.90
35559;DHT22;21661;50.794;-1.066;2022-10-16T06:33:42;13.70;99.90
35559;DHT22;21661;50.794;-1.066;2022-10-16T06:36:11;13.70;99.90
35559;DHT22;21661;50.794;-1.066;2022-10-16T06:38:38;13.70;99.90
35559;DHT22;21661;50.794;-1.066;2022-10-16T06:41:04;13.60;99.90
35559;DHT22;21661;50.794;-1.066;2022-10-16T06:43:29;13.50;99.90
35559;DHT22;21661;50.794;-1.066;2022-10-16T06:46:00;13.50;99.90
35559;DHT22;21661;50.794;-1.066;2022-10-16T06:48:26;13.40;99.90
35559;DHT22;21661;50.794;-1.066;2022-10-16T06:50:59;13.40;99.90
35559;DHT22;21661;50.794;-1.066;2022-10-16T06:53:24;13.40;99.90
35559;DHT22;21661;50.794;-1.066;2022-10-16T06:55:51;13.30;99.90
35559;DHT22;21661;50.794;-1.066;2022-10-16T06:58:17;13.20;99.90
35559;DHT22;21661;50.794;-1.066;2022-10-16T07:00:43;13.20;99.90
35559;DHT22;21661;50.794;-1.066;2022-10-16T07:03:08;13.10;99.90
35559;DHT22;21661;50.794;-1.066;2022-10-16T07:05:43;13.10;99.90
35559;DHT22;21661;50.794;-1.066;2022-10-16T07:08:08;13.10;99.90
35559;DHT22;21661;50.794;-1.066;2022-10-16T07:10:34;13.10;99.90
35559;DHT22;21661;50.794;-1.066;2022-10-16T07:13:00;13.10;99.90
35559;DHT22;21661;50.794;-1.066;2022-10-16T07:15:25;13.10;99.90
35559;DHT22;21661;50.794;-1.066;2022-10-16T07:17:51;13.10;99.90
35559;DHT22;21661;50.794;-1.066;2022-10-16T07:20:17;13.10;99.90
35559;DHT22;21661;50.794;-1.066;2022-10-16T07:22:42;13.10;99.90
35559;DHT22;21661;50.794;-1.066;2022-10-16T07:25:08;13.10;99.90
35559;DHT22;21661;50.794;-1.066;2022-10-16T07:27:33;13.10;99.90
35559;DHT22;21661;50.794;-1.066;2022-10-16T07:29:59;13.10;99.90
35559;DHT22;21661;50.794;-1.066;2022-10-16T07:32:25;13.10;99.90
35559;DHT22;21661;50.794;-1.066;2022-10-16T07:34:51;13.20;99.90
35559;DHT22;21661;50.794;-1.066;2022-10-16T07:37:16;13.20;99.90
35559;DHT22;21661;50.794;-1.066;2022-10-16T07:39:42;13.40;99.90
35559;DHT22;21661;50.794;-1.066;2022-10-16T07:42:08;13.40;99.90
35559;DHT22;21661;50.794;-1.066;2022-10-16T07:44:33;13.40;99.90
35559;DHT22;21661;50.794;-1.066;2022-10-16T07:46:58;13.50;99.90
35559;DHT22;21661;50.794;-1.066;2022-10-16T07:49:24;13.50;99.90
35559;DHT22;21661;50.794;-1.066;2022-10-16T07:51:50;13.60;99.90
35559;DHT22;21661;50.794;-1.066;2022-10-16T07:54:15;13.60;99.90
35559;DHT22;21661;50.794;-1.066;2022-10-16T07:56:41;13.70;99.90
35559;DHT22;21661;50.794;-1.066;2022-10-16T07:59:06;13.80;99.90
35559;DHT22;21661;50.794;-1.066;2022-10-16T08:01:32;13.90;99.90
35559;DHT22;21661;50.794;-1.066;2022-10-16T08:03:57;14.00;99.90
35559;DHT22;21661;50.794;-1.066;2022-10-16T08:06:23;14.10;99.90
35559;DHT22;21661;50.794;-1.066;2022-10-16T08:08:48;14.20;99.90
35559;DHT22;21661;50.794;-1.066;2022-10-16T08:11:14;14.20;99.90
35559;DHT22;21661;50.794;-1.066;2022-10-16T08:13:40;14.30;99.90
35559;DHT22;21661;50.794;-1.066;2022-10-16T08:16:06;14.30;99.90
35559;DHT22;21661;50.794;-1.066;2022-10-16T08:18:33;14.40;99.90
35559;DHT22;21661;50.794;-1.066;2022-10-16T08:20:59;14.40;99.90
35559;DHT22;21661;50.794;-1.066;2022-10-16T08:23:25;14.40;99.90
35559;DHT22;21661;50.794;-1.066;2022-10-16T08:25:52;14.50;99.90
35559;DHT22;21661;50.794;-1.066;2022-10-16T08:28:18;14.60;99.90
35559;DHT22;21661;50.794;-1.066;2022-10-16T08:30:44;14.70;99.90
35559;DHT22;21661;50.794;-1.066;2022-10-16T08:33:10;14.80;99.90
35559;DHT22;21661;50.794;-1.066;2022-10-16T08:35:35;14.80;99.90
35559;DHT22;21661;50.794;-1.066;2022-10-16T08:38:04;14.90;99.90
35559;DHT22;21661;50.794;-1.066;2022-10-16T08:40:31;15.00;99.90
35559;DHT22;21661;50.794;-1.066;2022-10-16T08:43:01;15.00;99.90
35559;DHT22;21661;50.794;-1.066;2022-10-16T08:48:18;15.00;99.90
35559;DHT22;21661;50.794;-1.066;2022-10-16T08:50:45;15.00;99.90
35559;DHT22;21661;50.794;-1.066;2022-10-16T08:53:14;15.00;99.90
35559;DHT22;21661;50.794;-1.066;2022-10-16T08:55:45;15.00;99.90
35559;DHT22;21661;50.794;-1.066;2022-10-16T08:58:18;15.00;99.90
35559;DHT22;21661;50.794;-1.066;2022-10-16T09:00:55;15.10;99.90
35559;DHT22;21661;50.794;-1.066;2022-10-16T09:06:05;15.10;99.90
35559;DHT22;21661;50.794;-1.066;2022-10-16T09:11:10;15.10;99.90
35559;DHT22;21661;50.794;-1.066;2022-10-16T09:13:45;15.20;99.90
35559;DHT22;21661;50.794;-1.066;2022-10-16T09:16:19;15.20;99.90
35559;DHT22;21661;50.794;-1.066;2022-10-16T09:23:57;15.20;99.90
35559;DHT22;21661;50.794;-1.066;2022-10-16T09:26:23;15.20;99.90
35559;DHT22;21661;50.794;-1.066;2022-10-16T09:28:49;15.30;99.90
35559;DHT22;21661;50.794;-1.066;2022-10-16T09:31:18;15.30;99.90
35559;DHT22;21661;50.794;-1.066;2022-10-16T09:33:45;15.50;99.90
35559;DHT22;21661;50.794;-1.066;2022-10-16T09:36:12;15.50;99.90
35559;DHT22;21661;50.794;-1.066;2022-10-16T09:38:38;15.70;99.90
35559;DHT22;21661;50.794;-1.066;2022-10-16T09:43:40;15.80;99.90
35559;DHT22;21661;50.794;-1.066;2022-10-16T09:46:07;15.90;99.90
35559;DHT22;21661;50.794;-1.066;2022-10-16T09:48:37;15.90;99.90
35559;DHT22;21661;50.794;-1.066;2022-10-16T09:51:05;16.00;99.90
35559;DHT22;21661;50.794;-1.066;2022-10-16T09:53:44;16.00;99.90
35559;DHT22;21661;50.794;-1.066;2022-10-16T09:56:11;16.00;99.90
35559;DHT22;21661;50.794;-1.066;2022-10-16T09:58:42;16.10;99.90
35559;DHT22;21661;50.794;-1.066;2022-10-16T10:01:11;16.10;99.90
35559;DHT22;21661;50.794;-1.066;2022-10-16T10:03:39;16.10;99.90
35559;DHT22;21661;50.794;-1.066;2022-10-16T10:06:06;16.20;99.90
35559;DHT22;21661;50.794;-1.066;2022-10-16T10:08:32;16.30;99.90
35559;DHT22;21661;50.794;-1.066;2022-10-16T10:10:57;16.30;99.90
35559;DHT22;21661;50.794;-1.066;2022-10-16T10:13:24;16.30;99.90
35559;DHT22;21661;50.794;-1.066;2022-10-16T10:15:50;16.30;99.90
35559;DHT22;21661;50.794;-1.066;2022-10-16T10:18:19;16.30;99.90
35559;DHT22;21661;50.794;-1.066;2022-10-16T10:20:46;16.40;99.90
35559;DHT22;21661;50.794;-1.066;2022-10-16T10:23:23;16.40;99.90
35559;DHT22;21661;50.794;-1.066;2022-10-16T10:31:29;16.60;99.90
35559;DHT22;21661;50.794;-1.066;2022-10-16T10:36:43;16.60;99.90
35559;DHT22;21661;50.794;-1.066;2022-10-16T10:46:49;16.90;99.90
35559;DHT22;21661;50.794;-1.066;2022-10-16T10:49:19;16.90;99.90
35559;DHT22;21661;50.794;-1.066;2022-10-16T10:52:07;17.10;99.90
35559;DHT22;21661;50.794;-1.066;2022-10-16T10:57:21;17.10;99.90
35559;DHT22;21661;50.794;-1.066;2022-10-16T11:07:43;17.20;99.90
35559;DHT22;21661;50.794;-1.066;2022-10-16T11:10:12;17.20;99.90
35559;DHT22;21661;50.794;-1.066;2022-10-16T11:12:39;17.20;99.90
35559;DHT22;21661;50.794;-1.066;2022-10-16T11:17:41;17.30;99.90
35559;DHT22;21661;50.794;-1.066;2022-10-16T11:22:47;17.30;99.90
35559;DHT22;21661;50.794;-1.066;2022-10-16T11:27:40;17.30;99.90
35559;DHT22;21661;50.794;-1.066;2022-10-16T11:30:12;17.30;99.90
35559;DHT22;21661;50.794;-1.066;2022-10-16T11:35:33;17.20;99.90
35559;DHT22;21661;50.794;-1.066;2022-10-16T11:38:02;17.10;99.90
35559;DHT22;21661;50.794;-1.066;2022-10-16T11:40:30;17.10;99.90
35559;DHT22;21661;50.794;-1.066;2022-10-16T11:43:02;16.90;99.90
35559;DHT22;21661;50.794;-1.066;2022-10-16T11:45:39;16.90;99.90
35559;DHT22;21661;50.794;-1.066;2022-10-16T11:48:18;16.90;99.90
35559;DHT22;21661;50.794;-1.066;2022-10-16T11:50:51;16.90;99.90
35559;DHT22;21661;50.794;-1.066;2022-10-16T11:55:55;16.90;99.90
35559;DHT22;21661;50.794;-1.066;2022-10-16T12:00:55;16.80;99.90
35559;DHT22;21661;50.794;-1.066;2022-10-16T12:06:11;16.80;99.90
35559;DHT22;21661;50.794;-1.066;2022-10-16T12:08:38;16.80;99.90
35559;DHT22;21661;50.794;-1.066;2022-10-16T12:11:24;16.90;99.90
35559;DHT22;21661;50.794;-1.066;2022-10-16T12:16:37;16.90;99.90
35559;DHT22;21661;50.794;-1.066;2022-10-16T12:19:11;16.90;99.90
35559;DHT22;21661;50.794;-1.066;2022-10-16T12:21:36;16.90;99.90
35559;DHT22;21661;50.794;-1.066;2022-10-16T12:24:02;16.90;99.90
35559;DHT22;21661;50.794;-1.066;2022-10-16T12:26:32;16.90;99.90
35559;DHT22;21661;50.794;-1.066;2022-10-16T12:31:43;17.00;99.90
35559;DHT22;21661;50.794;-1.066;2022-10-16T12:36:54;17.10;99.90
35559;DHT22;21661;50.794;-1.066;2022-10-16T12:39:21;17.10;99.90
35559;DHT22;21661;50.794;-1.066;2022-10-16T12:41:47;17.10;99.90
35559;DHT22;21661;50.794;-1.066;2022-10-16T12:44:24;17.20;99.90
35559;DHT22;21661;50.794;-1.066;2022-10-16T12:46:51;17.20;99.90
35559;DHT22;21661;50.794;-1.066;2022-10-16T12:49:22;17.20;99.90
35559;DHT22;21661;50.794;-1.066;2022-10-16T12:51:49;17.20;99.90
35559;DHT22;21661;50.794;-1.066;2022-10-16T12:54:19;17.20;99.90
35559;DHT22;21661;50.794;-1.066;2022-10-16T12:59:25;17.30;99.90
35559;DHT22;21661;50.794;-1.066;2022-10-16T13:02:03;17.30;99.90
35559;DHT22;21661;50.794;-1.066;2022-10-16T13:07:23;17.30;99.90
35559;DHT22;21661;50.794;-1.066;2022-10-16T13:09:58;17.30;99.90
35559;DHT22;21661;50.794;-1.066;2022-10-16T13:12:29;17.30;99.90
35559;DHT22;21661;50.794;-1.066;2022-10-16T13:15:08;17.30;99.90
35559;DHT22;21661;50.794;-1.066;2022-10-16T13:20:28;17.40;99.90
35559;DHT22;21661;50.794;-1.066;2022-10-16T13:28:08;17.50;99.90
35559;DHT22;21661;50.794;-1.066;2022-10-16T13:30:51;17.50;99.90
35559;DHT22;21661;50.794;-1.066;2022-10-16T13:33:18;17.50;99.90
35559;DHT22;21661;50.794;-1.066;2022-10-16T13:35:51;17.50;99.90
35559;DHT22;21661;50.794;-1.066;2022-10-16T13:38:18;17.40;99.90
35559;DHT22;21661;50.794;-1.066;2022-10-16T13:43:26;17.30;99.90
35559;DHT22;21661;50.794;-1.066;2022-10-16T13:45:53;17.40;99.90
35559;DHT22;21661;50.794;-1.066;2022-10-16T13:48:18;17.40;99.90
35559;DHT22;21661;50.794;-1.066;2022-10-16T13:50:44;17.40;99.90
35559;DHT22;21661;50.794;-1.066;2022-10-16T13:53:13;17.40;99.90
35559;DHT22;21661;50.794;-1.066;2022-10-16T13:55:39;17.30;99.90
35559;DHT22;21661;50.794;-1.066;2022-10-16T13:58:10;17.30;99.90
35559;DHT22;21661;50.794;-1.066;2022-10-16T14:00:36;17.20;99.90
35559;DHT22;21661;50.794;-1.066;2022-10-16T14:03:03;17.20;99.90
35559;DHT22;21661;50.794;-1.066;2022-10-16T14:05:29;17.10;99.90
35559;DHT22;21661;50.794;-1.066;2022-10-16T14:07:55;17.10;99.90
35559;DHT22;21661;50.794;-1.066;2022-10-16T14:10:27;17.10;99.90
35559;DHT22;21661;50.794;-1.066;2022-10-16T14:12:59;17.00;99.90
35559;DHT22;21661;50.794;-1.066;2022-10-16T14:15:25;16.90;99.90
35559;DHT22;21661;50.794;-1.066;2022-10-16T14:17:51;16.90;99.90
35559;DHT22;21661;50.794;-1.066;2022-10-16T14:20:18;16.90;99.90
35559;DHT22;21661;50.794;-1.066;2022-10-16T14:22:44;16.80;99.90
35559;DHT22;21661;50.794;-1.066;2022-10-16T14:27:45;16.80;99.90
35559;DHT22;21661;50.794;-1.066;2022-10-16T14:30:19;16.80;99.90
35559;DHT22;21661;50.794;-1.066;2022-10-16T14:32:54;16.90;99.90
35559;DHT22;21661;50.794;-1.066;2022-10-16T14:35:30;16.90;99.90
35559;DHT22;21661;50.794;-1.066;2022-10-16T14:37:57;17.00;99.90
35559;DHT22;21661;50.794;-1.066;2022-10-16T14:40:24;16.90;99.90
35559;DHT22;21661;50.794;-1.066;2022-10-16T14:42:50;16.80;99.90
35559;DHT22;21661;50.794;-1.066;2022-10-16T14:45:26;16.80;99.90
35559;DHT22;21661;50.794;-1.066;2022-10-16T14:47:53;16.90;99.90
35559;DHT22;21661;50.794;-1.066;2022-10-16T14:50:19;16.90;99.90
35559;DHT22;21661;50.794;-1.066;2022-10-16T14:52:44;16.80;99.90
35559;DHT22;21661;50.794;-1.066;2022-10-16T14:55:10;16.80;99.90
35559;DHT22;21661;50.794;-1.066;2022-10-16T14:57:37;16.70;99.90
35559;DHT22;21661;50.794;-1.066;2022-10-16T15:00:06;16.70;99.90
35559;DHT22;21661;50.794;-1.066;2022-10-16T15:02:34;16.70;99.90
35559;DHT22;21661;50.794;-1.066;2022-10-16T15:05:04;16.70;99.90
35559;DHT22;21661;50.794;-1.066;2022-10-16T15:07:35;16.70;99.90
35559;DHT22;21661;50.794;-1.066;2022-10-16T15:10:00;16.70;99.90
35559;DHT22;21661;50.794;-1.066;2022-10-16T15:12:26;16.70;99.90
35559;DHT22;21661;50.794;-1.066;2022-10-16T15:14:51;16.60;99.90
35559;DHT22;21661;50.794;-1.066;2022-10-16T15:17:17;16.50;99.90
35559;DHT22;21661;50.794;-1.066;2022-10-16T15:19:42;16.50;99.90
35559;DHT22;21661;50.794;-1.066;2022-10-16T15:22:09;16.40;99.90
35559;DHT22;21661;50.794;-1.066;2022-10-16T15:24:36;16.50;99.90
35559;DHT22;21661;50.794;-1.066;2022-10-16T15:27:01;16.50;99.90
35559;DHT22;21661;50.794;-1.066;2022-10-16T15:29:27;16.40;99.90
35559;DHT22;21661;50.794;-1.066;2022-10-16T15:31:52;16.40;99.90
35559;DHT22;21661;50.794;-1.066;2022-10-16T15:34:18;16.40;99.90
35559;DHT22;21661;50.794;-1.066;2022-10-16T15:36:44;16.40;99.90
35559;DHT22;21661;50.794;-1.066;2022-10-16T15:39:14;16.30;99.90
35559;DHT22;21661;50.794;-1.066;2022-10-16T15:41:40;16.30;99.90
35559;DHT22;21661;50.794;-1.066;2022-10-16T15:44:06;16.30;99.90
35559;DHT22;21661;50.794;-1.066;2022-10-16T15:46:32;16.20;99.90
35559;DHT22;21661;50.794;-1.066;2022-10-16T15:48:59;16.30;99.90
35559;DHT22;21661;50.794;-1.066;2022-10-16T15:51:25;16.20;99.90
35559;DHT22;21661;50.794;-1.066;2022-10-16T15:53:52;16.20;99.90
35559;DHT22;21661;50.794;-1.066;2022-10-16T15:56:19;16.10;99.90
35559;DHT22;21661;50.794;-1.066;2022-10-16T15:58:44;16.20;99.90
35559;DHT22;21661;50.794;-1.066;2022-10-16T16:01:10;16.20;99.90
35559;DHT22;21661;50.794;-1.066;2022-10-16T16:03:36;16.10;99.90
35559;DHT22;21661;50.794;-1.066;2022-10-16T16:06:05;16.00;99.90
35559;DHT22;21661;50.794;-1.066;2022-10-16T16:08:32;16.00;99.90
35559;DHT22;21661;50.794;-1.066;2022-10-16T16:10:58;16.00;99.90
35559;DHT22;21661;50.794;-1.066;2022-10-16T16:13:25;16.00;99.90
35559;DHT22;21661;50.794;-1.066;2022-10-16T16:15:51;16.00;99.90
35559;DHT22;21661;50.794;-1.066;2022-10-16T16:18:16;16.00;99.90
35559;DHT22;21661;50.794;-1.066;2022-10-16T16:20:42;15.90;99.90
35559;DHT22;21661;50.794;-1.066;2022-10-16T16:23:07;15.90;99.90
35559;DHT22;21661;50.794;-1.066;2022-10-16T16:25:33;15.90;99.90
35559;DHT22;21661;50.794;-1.066;2022-10-16T16:27:58;15.90;99.90
35559;DHT22;21661;50.794;-1.066;2022-10-16T16:30:24;15.90;99.90
35559;DHT22;21661;50.794;-1.066;2022-10-16T16:32:49;15.90;99.90
35559;DHT22;21661;50.794;-1.066;2022-10-16T16:35:15;16.00;99.90
35559;DHT22;21661;50.794;-1.066;2022-10-16T16:37:40;16.00;99.90
35559;DHT22;21661;50.794;-1.066;2022-10-16T16:40:06;16.00;99.90
35559;DHT22;21661;50.794;-1.066;2022-10-16T16:42:31;16.00;99.90
35559;DHT22;21661;50.794;-1.066;2022-10-16T16:44:57;16.00;99.90
35559;DHT22;21661;50.794;-1.066;2022-10-16T16:47:22;16.00;99.90
35559;DHT22;21661;50.794;-1.066;2022-10-16T16:49:48;15.90;99.90
35559;DHT22;21661;50.794;-1.066;2022-10-16T16:52:13;15.90;99.90
35559;DHT22;21661;50.794;-1.066;2022-10-16T16:54:39;15.90;99.90
35559;DHT22;21661;50.794;-1.066;2022-10-16T16:57:05;15.90;99.90
35559;DHT22;21661;50.794;-1.066;2022-10-16T16:59:30;15.90;99.90
35559;DHT22;21661;50.794;-1.066;2022-10-16T17:02:00;15.90;99.90